Time;durP1;ratioP1;P1;durP2;ratioP2;P2;SDS_P1;SDS_P2;PMS_P1;PMS_P2;Temp;Humidity;BMP_temperature;BMP_pressure;BME280_temperature;BME280_humidity;BME280_pressure;Samples;Min_cycle;Max_cycle;Signal;HPM_P1;HPM_P2
2023/10/08 00:00:38;;;;;;;9.40;3.40;;;;;;;;;;5033540;28;20021;-84
2023/10/08 00:02:45;;;;;;;7.57;2.83;;;;;;;;;;5033972;28;20033;-84
2023/10/08 00:05:10;;;;;;;7.82;3.30;;;;;;;;;;5035080;28;20040;-84
2023/10/08 00:07:36;;;;;;;7.03;3.10;;;;;;;;;;5033215;28;20029;-84
2023/10/08 00:10:02;;;;;;;8.93;3.40;;;;;;;;;;5033155;28;20653;-83
2023/10/08 00:12:29;;;;;;;8.18;2.70;;;;;;;;;;5033180;28;20128;-83
2023/10/08 00:14:54;;;;;;;7.85;2.00;;;;;;;;;;5034608;28;20033;-81
2023/10/08 00:17:20;;;;;;;8.23;2.60;;;;;;;;;;5034174;28;20032;-83
2023/10/08 00:19:52;;;;;;;7.97;2.50;;;;;;;;;;5034492;28;20029;-84
2023/10/08 00:22:18;;;;;;;6.25;1.95;;;;;;;;;;5031955;28;20088;-83
2023/10/08 00:24:46;;;;;;;4.65;2.00;;;;;;;;;;5032896;28;20198;-84
2023/10/08 00:27:14;;;;;;;5.38;2.10;;;;;;;;;;5034094;28;20060;-84
2023/10/08 00:29:43;;;;;;;6.05;2.00;;;;;;;;;;5033581;28;20483;-83
2023/10/08 00:32:11;;;;;;;5.28;1.95;;;;;;;;;;5026771;28;20123;-82
2023/10/08 00:34:41;;;;;;;6.47;2.22;;;;;;;;;;5034178;28;20025;-83
2023/10/08 00:37:11;;;;;;;8.10;2.22;;;;;;;;;;5032596;28;20590;-82
2023/10/08 00:39:39;;;;;;;6.18;2.15;;;;;;;;;;5034249;28;20534;-82
2023/10/08 00:42:07;;;;;;;7.47;2.10;;;;;;;;;;5048586;28;20079;-82
2023/10/08 00:44:37;;;;;;;5.80;2.30;;;;;;;;;;5027925;28;20108;-84
2023/10/08 00:47:04;;;;;;;5.93;2.28;;;;;;;;;;5022708;28;20049;-84
2023/10/08 00:55:06;;;;;;;10.35;2.40;;;;;;;;;;5033635;28;20030;-83
2023/10/08 00:57:35;;;;;;;8.65;2.58;;;;;;;;;;5033687;28;20029;-85
2023/10/08 01:00:03;;;;;;;7.10;2.60;;;;;;;;;;5032003;28;20085;-85
2023/10/08 01:02:44;;;;;;;6.25;2.33;;;;;;;;;;5031661;28;20040;-85
2023/10/08 01:05:12;;;;;;;10.10;2.13;;;;;;;;;;5033317;28;20033;-85
2023/10/08 01:07:43;;;;;;;11.13;2.30;;;;;;;;;;5033222;28;20065;-85
2023/10/08 01:10:10;;;;;;;11.85;2.45;;;;;;;;;;5026126;28;20099;-83
2023/10/08 01:12:44;;;;;;;8.73;2.38;;;;;;;;;;5032781;28;20028;-83
2023/10/08 01:15:18;;;;;;;6.32;2.20;;;;;;;;;;5018771;28;20476;-83
2023/10/08 01:20:34;;;;;;;11.88;2.28;;;;;;;;;;5048137;28;20021;-83
2023/10/08 01:23:03;;;;;;;7.15;2.20;;;;;;;;;;5032422;28;20395;-84
2023/10/08 01:25:29;;;;;;;12.50;2.55;;;;;;;;;;5033219;28;20033;-83
2023/10/08 01:27:56;;;;;;;11.90;2.83;;;;;;;;;;5032999;28;20075;-84
2023/10/08 01:30:21;;;;;;;13.23;2.42;;;;;;;;;;5032864;28;20029;-84
2023/10/08 01:32:47;;;;;;;11.13;2.55;;;;;;;;;;5031185;28;20394;-84
2023/10/08 01:35:22;;;;;;;17.65;2.83;;;;;;;;;;5031797;28;20049;-85
2023/10/08 01:37:52;;;;;;;12.32;3.20;;;;;;;;;;5031908;28;20062;-85
2023/10/08 01:40:21;;;;;;;10.70;3.05;;;;;;;;;;5031212;28;20117;-85
2023/10/08 01:42:46;;;;;;;11.77;2.85;;;;;;;;;;5034646;28;20041;-85
2023/10/08 01:45:17;;;;;;;12.15;2.83;;;;;;;;;;5032508;28;20034;-84
2023/10/08 01:47:44;;;;;;;12.50;2.65;;;;;;;;;;5033246;28;20037;-83
2023/10/08 01:50:21;;;;;;;14.48;3.05;;;;;;;;;;5031462;28;20029;-83
2023/10/08 01:52:51;;;;;;;17.55;2.88;;;;;;;;;;5029730;28;20032;-83
2023/10/08 01:55:18;;;;;;;12.05;3.20;;;;;;;;;;5030765;28;20108;-84
2023/10/08 01:57:44;;;;;;;14.52;3.30;;;;;;;;;;5031834;28;20639;-83
2023/10/08 02:00:11;;;;;;;12.32;3.25;;;;;;;;;;5031566;28;20030;-85
2023/10/08 02:02:37;;;;;;;12.75;3.00;;;;;;;;;;5033636;28;20407;-85
2023/10/08 02:05:04;;;;;;;16.67;3.40;;;;;;;;;;5036006;28;20021;-85
2023/10/08 02:07:30;;;;;;;12.57;3.30;;;;;;;;;;5035447;28;20037;-84
2023/10/08 02:09:57;;;;;;;13.52;2.95;;;;;;;;;;5035842;28;20499;-84
2023/10/08 02:12:24;;;;;;;14.35;3.30;;;;;;;;;;5037085;28;20049;-82
2023/10/08 02:14:50;;;;;;;16.92;3.50;;;;;;;;;;5036622;28;20029;-83
2023/10/08 02:17:17;;;;;;;18.83;3.35;;;;;;;;;;5034330;28;20077;-84
2023/10/08 02:19:43;;;;;;;12.40;3.60;;;;;;;;;;5036299;28;20043;-84
2023/10/08 02:22:11;;;;;;;11.25;3.47;;;;;;;;;;5035774;28;20025;-84
2023/10/08 02:24:37;;;;;;;12.05;3.75;;;;;;;;;;5037211;28;20017;-84
2023/10/08 02:27:03;;;;;;;15.50;3.42;;;;;;;;;;5036696;28;20125;-84
2023/10/08 02:29:30;;;;;;;13.90;3.60;;;;;;;;;;5035484;28;20112;-84
2023/10/08 02:31:59;;;;;;;20.27;4.00;;;;;;;;;;5036335;28;20030;-84
2023/10/08 02:34:25;;;;;;;11.43;3.45;;;;;;;;;;5032842;28;20487;-85
2023/10/08 02:36:50;;;;;;;15.52;3.40;;;;;;;;;;5037036;28;20033;-84
2023/10/08 02:39:24;;;;;;;18.52;4.03;;;;;;;;;;5037265;28;20022;-84
2023/10/08 02:41:52;;;;;;;13.07;3.55;;;;;;;;;;5051495;28;20063;-84
2023/10/08 02:44:20;;;;;;;13.85;4.15;;;;;;;;;;5043857;28;20026;-84
2023/10/08 02:46:47;;;;;;;16.13;3.53;;;;;;;;;;5020845;28;20034;-83
2023/10/08 02:49:20;;;;;;;13.15;3.47;;;;;;;;;;5036399;28;20107;-83
2023/10/08 02:51:54;;;;;;;10.98;3.50;;;;;;;;;;5035858;28;20037;-84
2023/10/08 02:54:23;;;;;;;14.13;3.45;;;;;;;;;;5033763;28;20033;-84
2023/10/08 02:56:58;;;;;;;15.18;3.38;;;;;;;;;;5036071;28;20364;-83
2023/10/08 02:59:28;;;;;;;16.10;3.50;;;;;;;;;;5034757;28;20029;-84
2023/10/08 03:01:55;;;;;;;8.77;3.20;;;;;;;;;;5033938;28;20040;-83
2023/10/08 03:04:22;;;;;;;12.20;4.28;;;;;;;;;;5036561;28;20032;-85
2023/10/08 03:06:53;;;;;;;13.80;3.95;;;;;;;;;;5034654;28;20041;-83
2023/10/08 03:09:21;;;;;;;15.73;3.20;;;;;;;;;;5016401;28;20053;-83
2023/10/08 03:11:48;;;;;;;11.68;3.60;;;;;;;;;;5034357;28;20120;-84
2023/10/08 03:14:21;;;;;;;13.32;3.58;;;;;;;;;;5033294;28;20124;-84
2023/10/08 03:17:06;;;;;;;9.63;3.60;;;;;;;;;;5013528;28;20034;-84
2023/10/08 03:19:32;;;;;;;13.40;3.60;;;;;;;;;;5035408;28;20132;-83
2023/10/08 03:21:58;;;;;;;10.90;3.53;;;;;;;;;;5026985;28;20140;-85
2023/10/08 03:24:47;;;;;;;13.82;3.70;;;;;;;;;;5022102;28;20037;-84
2023/10/08 03:27:20;;;;;;;10.35;3.45;;;;;;;;;;5035092;28;20128;-85
2023/10/08 03:29:46;;;;;;;15.50;3.70;;;;;;;;;;5048590;28;20025;-85
2023/10/08 03:32:17;;;;;;;14.55;3.75;;;;;;;;;;5029119;28;20029;-85
2023/10/08 03:34:48;;;;;;;19.75;3.47;;;;;;;;;;5034998;28;20108;-84
2023/10/08 03:37:21;;;;;;;13.95;4.05;;;;;;;;;;5049485;28;20461;-84
2023/10/08 03:42:34;;;;;;;12.98;3.75;;;;;;;;;;5034459;28;20063;-83
2023/10/08 03:45:10;;;;;;;12.65;3.58;;;;;;;;;;5036195;28;20037;-84
2023/10/08 03:47:39;;;;;;;13.93;4.03;;;;;;;;;;5026985;28;20490;-83
2023/10/08 03:50:06;;;;;;;12.55;3.25;;;;;;;;;;5037479;28;20356;-83
2023/10/08 03:52:36;;;;;;;13.40;3.47;;;;;;;;;;5017703;28;20026;-83
2023/10/08 03:57:44;;;;;;;12.75;3.53;;;;;;;;;;5034553;28;20037;-83
2023/10/08 04:00:18;;;;;;;12.23;3.72;;;;;;;;;;5033365;28;20053;-83
2023/10/08 04:02:54;;;;;;;16.85;4.07;;;;;;;;;;5032399;28;20099;-84
2023/10/08 04:05:27;;;;;;;12.27;4.32;;;;;;;;;;5034520;28;20029;-84
2023/10/08 04:13:08;;;;;;;12.18;3.40;;;;;;;;;;5034593;28;20076;-84
2023/10/08 04:15:40;;;;;;;15.38;3.38;;;;;;;;;;5034084;28;20033;-84
2023/10/08 04:18:09;;;;;;;13.02;3.42;;;;;;;;;;5034290;28;20021;-84
2023/10/08 04:23:20;;;;;;;15.98;3.70;;;;;;;;;;5031398;28;20033;-84
2023/10/08 04:25:51;;;;;;;17.42;3.63;;;;;;;;;;5033134;28;20040;-84
2023/10/08 04:28:20;;;;;;;13.98;3.47;;;;;;;;;;5032411;28;20119;-84
2023/10/08 04:30:47;;;;;;;13.13;3.78;;;;;;;;;;5033308;28;20029;-83
2023/10/08 04:33:13;;;;;;;14.93;3.63;;;;;;;;;;5033883;28;20029;-83
2023/10/08 04:35:55;;;;;;;12.65;3.60;;;;;;;;;;5034020;28;20025;-83
2023/10/08 04:38:23;;;;;;;15.93;3.90;;;;;;;;;;5033900;28;20029;-82
2023/10/08 04:40:51;;;;;;;13.82;3.95;;;;;;;;;;5022318;28;20040;-82
2023/10/08 04:43:30;;;;;;;18.67;3.40;;;;;;;;;;5034414;28;20044;-82
2023/10/08 04:46:04;;;;;;;13.82;3.60;;;;;;;;;;5033599;28;20664;-82
2023/10/08 04:48:32;;;;;;;14.45;3.30;;;;;;;;;;5034033;28;20532;-82
2023/10/08 04:50:59;;;;;;;14.20;3.25;;;;;;;;;;5032201;28;20029;-83
2023/10/08 04:53:37;;;;;;;15.32;3.70;;;;;;;;;;5033702;28;20029;-84
2023/10/08 04:56:16;;;;;;;14.10;3.47;;;;;;;;;;5033532;28;20029;-84
2023/10/08 04:58:46;;;;;;;14.48;3.33;;;;;;;;;;5033911;28;20060;-84
2023/10/08 05:01:29;;;;;;;9.02;3.28;;;;;;;;;;5032862;28;20037;-84
2023/10/08 05:09:41;;;;;;;11.98;3.70;;;;;;;;;;5031446;28;20374;-85
2023/10/08 05:15:21;;;;;;;13.98;3.25;;;;;;;;;;5032712;28;20044;-84
2023/10/08 05:23:20;;;;;;;12.82;3.78;;;;;;;;;;5032436;28;20445;-84
2023/10/08 05:26:08;;;;;;;;;;;;;;;;;;5031745;28;20029;-82
2023/10/08 05:39:32;;;;;;;9.07;3.65;;;;;;;;;;5035269;28;20032;-83
2023/10/08 05:44:46;;;;;;;16.23;3.55;;;;;;;;;;5035255;28;20120;-83
2023/10/08 05:52:50;;;;;;;17.70;3.58;;;;;;;;;;5030899;28;20036;-83
2023/10/08 05:55:25;;;;;;;10.07;3.50;;;;;;;;;;5045456;28;20072;-84
2023/10/08 05:58:13;;;;;;;13.50;3.47;;;;;;;;;;5031225;28;20033;-83
2023/10/08 06:01:05;;;;;;;11.82;3.55;;;;;;;;;;5046588;28;20029;-82
2023/10/08 06:03:39;;;;;;;14.45;3.97;;;;;;;;;;5026840;28;20145;-83
2023/10/08 06:11:44;;;;;;;12.18;3.78;;;;;;;;;;5031075;28;20029;-85
2023/10/08 06:14:13;;;;;;;16.60;3.65;;;;;;;;;;5031962;28;20037;-85
2023/10/08 06:16:46;;;;;;;11.13;3.70;;;;;;;;;;5028916;28;20394;-85
2023/10/08 06:19:13;;;;;;;9.98;3.65;;;;;;;;;;5031937;28;20083;-85
2023/10/08 06:21:40;;;;;;;12.25;3.65;;;;;;;;;;5031250;28;20025;-84
2023/10/08 06:24:10;;;;;;;15.80;3.40;;;;;;;;;;5031895;28;20030;-83
2023/10/08 06:26:42;;;;;;;12.23;3.75;;;;;;;;;;5030358;28;20128;-83
2023/10/08 06:29:29;;;;;;;14.48;3.42;;;;;;;;;;5030249;28;20022;-81
2023/10/08 06:31:56;;;;;;;12.27;3.47;;;;;;;;;;5031045;28;20068;-81
2023/10/08 06:34:25;;;;;;;10.43;3.33;;;;;;;;;;5031705;28;20021;-83
2023/10/08 06:36:54;;;;;;;10.07;3.22;;;;;;;;;;5031867;28;20036;-83
2023/10/08 06:39:33;;;;;;;9.85;3.50;;;;;;;;;;5030343;28;20037;-83
2023/10/08 06:41:59;;;;;;;17.77;3.90;;;;;;;;;;5031041;28;20111;-82
2023/10/08 06:44:28;;;;;;;13.60;3.92;;;;;;;;;;5030055;28;20569;-83
2023/10/08 06:46:58;;;;;;;12.77;3.53;;;;;;;;;;5031030;28;20033;-84
2023/10/08 06:49:23;;;;;;;12.68;4.00;;;;;;;;;;5035044;28;20032;-84
2023/10/08 06:51:50;;;;;;;13.20;3.85;;;;;;;;;;5035644;28;20108;-84
2023/10/08 06:54:17;;;;;;;9.77;3.58;;;;;;;;;;5034553;28;20041;-84
2023/10/08 06:56:46;;;;;;;15.35;3.83;;;;;;;;;;5037628;28;20038;-84
2023/10/08 06:59:16;;;;;;;15.20;3.75;;;;;;;;;;5040162;28;20041;-84
2023/10/08 07:01:45;;;;;;;11.85;3.78;;;;;;;;;;5035147;28;20083;-84
2023/10/08 07:04:12;;;;;;;12.60;3.88;;;;;;;;;;5035457;28;20041;-84
2023/10/08 07:06:39;;;;;;;10.30;3.50;;;;;;;;;;5056986;28;20033;-83
2023/10/08 07:09:06;;;;;;;14.35;3.88;;;;;;;;;;5037332;28;20068;-87
2023/10/08 07:11:39;;;;;;;12.60;3.45;;;;;;;;;;5035165;28;20029;-85
2023/10/08 07:14:05;;;;;;;12.85;3.50;;;;;;;;;;5035434;28;20060;-85
2023/10/08 07:16:31;;;;;;;14.35;3.97;;;;;;;;;;5036106;28;20045;-86
2023/10/08 07:19:15;;;;;;;13.48;4.10;;;;;;;;;;5035357;28;20025;-84
2023/10/08 07:21:46;;;;;;;15.55;3.83;;;;;;;;;;5036269;28;20040;-87
2023/10/08 07:24:17;;;;;;;12.55;3.35;;;;;;;;;;5036812;28;20029;-85
2023/10/08 07:26:49;;;;;;;15.05;3.78;;;;;;;;;;5035658;28;20044;-87
2023/10/08 07:29:17;;;;;;;14.27;3.20;;;;;;;;;;5036699;28;20036;-86
2023/10/08 07:31:48;;;;;;;12.70;3.08;;;;;;;;;;5037293;28;20096;-86
2023/10/08 07:34:15;;;;;;;16.40;3.47;;;;;;;;;;5039033;28;20049;-87
2023/10/08 07:36:43;;;;;;;12.90;3.08;;;;;;;;;;5039613;28;20045;-87
2023/10/08 07:39:22;;;;;;;15.38;3.10;;;;;;;;;;5020594;28;20021;-88
2023/10/08 07:41:48;;;;;;;12.38;3.40;;;;;;;;;;5039496;28;20048;-88
2023/10/08 07:44:13;;;;;;;16.40;3.72;;;;;;;;;;5038959;28;20025;-89
2023/10/08 07:46:39;;;;;;;13.88;3.60;;;;;;;;;;5038571;28;20033;-89
2023/10/08 07:49:05;;;;;;;16.33;3.20;;;;;;;;;;5041411;28;20047;-88
2023/10/08 07:51:30;;;;;;;17.25;3.10;;;;;;;;;;5042299;28;20040;-88
2023/10/08 07:53:56;;;;;;;17.05;3.47;;;;;;;;;;5041097;28;20029;-87
2023/10/08 07:56:23;;;;;;;13.75;3.28;;;;;;;;;;5039686;28;20437;-89
2023/10/08 07:58:49;;;;;;;14.30;3.40;;;;;;;;;;5034702;28;20053;-91
2023/10/08 08:01:15;;;;;;;16.80;3.50;;;;;;;;;;5036155;28;20060;-89
2023/10/08 08:03:45;;;;;;;15.50;3.20;;;;;;;;;;5033211;28;20064;-91
2023/10/08 08:06:11;;;;;;;15.95;3.00;;;;;;;;;;5029435;28;20674;-90
2023/10/08 08:08:38;;;;;;;18.67;2.90;;;;;;;;;;5035550;28;20034;-91
2023/10/08 08:11:11;;;;;;;12.95;2.83;;;;;;;;;;5033960;28;20032;-88
2023/10/08 08:16:48;;;;;;;12.73;3.20;;;;;;;;;;5002241;28;20049;-91
2023/10/08 08:19:27;;;;;;;12.40;3.22;;;;;;;;;;5048829;28;20571;-92
2023/10/08 08:22:02;;;;;;;15.43;3.47;;;;;;;;;;5032950;28;20037;-91
2023/10/08 08:24:45;;;;;;;16.10;3.55;;;;;;;;;;5036656;28;20041;-92
2023/10/08 08:27:39;;;;;;;16.13;3.38;;;;;;;;;;5034595;28;20037;-91
2023/10/08 08:30:15;;;;;;;16.58;3.80;;;;;;;;;;5036266;28;20414;-90
2023/10/08 08:32:44;;;;;;;12.80;3.53;;;;;;;;;;5035694;28;20040;-90
2023/10/08 08:35:11;;;;;;;11.63;2.95;;;;;;;;;;5022274;28;20160;-90
2023/10/08 08:37:40;;;;;;;13.80;3.28;;;;;;;;;;5038134;28;20151;-90
2023/10/08 08:40:09;;;;;;;16.02;3.70;;;;;;;;;;5037716;28;20017;-91
2023/10/08 08:42:35;;;;;;;9.98;3.30;;;;;;;;;;5035470;28;20658;-88
2023/10/08 08:45:08;;;;;;;14.45;3.42;;;;;;;;;;5035928;28;20045;-83
2023/10/08 08:47:35;;;;;;;14.82;3.58;;;;;;;;;;5034220;28;20034;-86
2023/10/08 08:50:08;;;;;;;15.05;3.60;;;;;;;;;;5036456;28;20364;-88
2023/10/08 08:52:37;;;;;;;18.00;4.30;;;;;;;;;;5032941;28;20167;-89
2023/10/08 08:55:13;;;;;;;17.70;3.90;;;;;;;;;;5044307;28;20041;-89
2023/10/08 08:57:41;;;;;;;11.50;3.70;;;;;;;;;;5038992;28;20399;-90
2023/10/08 09:00:11;;;;;;;14.35;3.95;;;;;;;;;;5040210;28;20033;-90
2023/10/08 09:02:40;;;;;;;20.42;4.03;;;;;;;;;;5047065;28;20094;-90
2023/10/08 09:05:13;;;;;;;16.42;3.60;;;;;;;;;;5038908;28;20041;-89
2023/10/08 09:08:04;;;;;;;16.50;4.03;;;;;;;;;;5037293;28;20040;-91
2023/10/08 09:10:36;;;;;;;18.52;3.85;;;;;;;;;;5037102;28;20044;-89
2023/10/08 09:13:07;;;;;;;13.02;3.35;;;;;;;;;;5022885;28;20090;-89
2023/10/08 09:15:33;;;;;;;12.40;3.13;;;;;;;;;;5017972;28;20034;-90
2023/10/08 09:18:04;;;;;;;15.13;3.53;;;;;;;;;;5036208;28;20380;-90
2023/10/08 09:20:34;;;;;;;16.73;3.80;;;;;;;;;;5039630;28;20037;-88
2023/10/08 09:23:14;;;;;;;11.80;3.33;;;;;;;;;;5039424;28;20034;-89
2023/10/08 09:25:45;;;;;;;11.70;3.15;;;;;;;;;;5035840;28;20038;-90
2023/10/08 09:28:14;;;;;;;14.40;3.80;;;;;;;;;;5036864;28;20057;-89
2023/10/08 09:30:40;;;;;;;14.68;3.67;;;;;;;;;;5037725;28;20045;-89
2023/10/08 09:33:08;;;;;;;20.92;4.47;;;;;;;;;;5039282;28;20044;-90
2023/10/08 09:35:33;;;;;;;13.52;3.65;;;;;;;;;;5051286;28;20048;-86
2023/10/08 09:38:03;;;;;;;24.95;4.70;;;;;;;;;;5037971;28;20044;-89
2023/10/08 09:40:30;;;;;;;16.73;4.18;;;;;;;;;;5048620;28;20480;-90
2023/10/08 09:42:56;;;;;;;10.02;3.08;;;;;;;;;;5031873;28;20037;-90
2023/10/08 09:45:22;;;;;;;18.95;3.72;;;;;;;;;;5032576;28;20175;-90
2023/10/08 09:47:54;;;;;;;15.82;3.58;;;;;;;;;;5021026;28;20050;-90
2023/10/08 09:50:32;;;;;;;17.33;3.72;;;;;;;;;;5016992;28;20498;-89
2023/10/08 09:53:10;;;;;;;12.63;3.30;;;;;;;;;;5031116;28;20121;-89
2023/10/08 09:55:43;;;;;;;22.60;4.32;;;;;;;;;;5030943;28;20057;-91
2023/10/08 09:58:13;;;;;;;14.27;3.20;;;;;;;;;;5032046;28;20112;-90
2023/10/08 10:00:39;;;;;;;12.05;3.10;;;;;;;;;;5033095;28;20045;-89
2023/10/08 10:03:05;;;;;;;17.98;3.85;;;;;;;;;;5034748;28;20037;-91
2023/10/08 10:05:34;;;;;;;16.95;3.65;;;;;;;;;;5031374;28;20479;-88
2023/10/08 10:07:59;;;;;;;12.07;3.17;;;;;;;;;;5034023;28;20045;-86
2023/10/08 10:10:31;;;;;;;11.10;3.20;;;;;;;;;;5045593;28;20117;-87
2023/10/08 10:13:02;;;;;;;18.20;3.07;;;;;;;;;;5044870;28;20086;-86
2023/10/08 10:15:31;;;;;;;14.60;3.45;;;;;;;;;;5044232;28;20042;-87
2023/10/08 10:18:13;;;;;;;22.42;3.35;;;;;;;;;;5045038;28;20052;-87
2023/10/08 10:20:50;;;;;;;16.63;3.70;;;;;;;;;;5059058;28;20033;-84
2023/10/08 10:23:36;;;;;;;15.65;3.47;;;;;;;;;;5047364;28;20072;-85
2023/10/08 10:26:02;;;;;;;13.90;3.38;;;;;;;;;;5050155;28;20060;-87
2023/10/08 10:28:29;;;;;;;18.90;3.58;;;;;;;;;;5051913;28;20053;-86
2023/10/08 10:30:55;;;;;;;12.88;3.50;;;;;;;;;;5050999;28;20042;-85
2023/10/08 10:33:21;;;;;;;14.15;3.88;;;;;;;;;;5050695;28;20042;-87
2023/10/08 10:35:54;;;;;;;16.98;3.70;;;;;;;;;;5049513;28;20048;-87
2023/10/08 10:38:20;;;;;;;19.02;3.55;;;;;;;;;;5047844;28;20460;-86
2023/10/08 10:40:56;;;;;;;12.13;3.38;;;;;;;;;;5049705;28;20040;-88
2023/10/08 10:43:32;;;;;;;15.50;3.60;;;;;;;;;;5066148;28;20038;-86
2023/10/08 10:48:57;;;;;;;16.67;3.22;;;;;;;;;;5049882;28;20045;-86
2023/10/08 10:51:22;;;;;;;18.02;3.92;;;;;;;;;;5048656;28;20040;-86
2023/10/08 10:53:57;;;;;;;14.80;3.40;;;;;;;;;;5049256;28;20037;-87
2023/10/08 10:56:29;;;;;;;17.88;3.67;;;;;;;;;;5049551;28;20033;-86
2023/10/08 10:58:59;;;;;;;14.47;3.73;;;;;;;;;;5048910;28;20033;-86
2023/10/08 11:01:44;;;;;;;18.73;4.25;;;;;;;;;;5046534;28;20287;-86
2023/10/08 11:04:15;;;;;;;21.75;3.97;;;;;;;;;;5049747;28;20087;-86
2023/10/08 11:06:45;;;;;;;17.38;3.55;;;;;;;;;;5049024;28;20037;-86
2023/10/08 11:09:36;;;;;;;17.75;3.33;;;;;;;;;;5048431;28;20026;-85
2023/10/08 11:11:58;;;;;;;17.73;3.55;;;;;;;;;;5048296;28;20103;-86
2023/10/08 11:14:25;;;;;;;15.77;3.78;;;;;;;;;;5048811;28;20057;-86
2023/10/08 11:16:51;;;;;;;16.30;4.35;;;;;;;;;;5043779;28;20044;-86
2023/10/08 11:19:19;;;;;;;20.90;4.28;;;;;;;;;;5048808;28;20049;-87
2023/10/08 11:21:55;;;;;;;16.25;3.33;;;;;;;;;;5047743;28;20048;-86
2023/10/08 11:24:28;;;;;;;15.98;3.60;;;;;;;;;;5060940;28;20030;-87
2023/10/08 11:27:06;;;;;;;14.60;3.33;;;;;;;;;;5047668;28;20036;-86
2023/10/08 11:29:32;;;;;;;18.65;4.05;;;;;;;;;;5048028;28;20092;-87
2023/10/08 11:32:00;;;;;;;17.20;3.83;;;;;;;;;;5046689;28;20040;-86
2023/10/08 11:34:36;;;;;;;13.68;3.80;;;;;;;;;;5043479;28;20034;-86
2023/10/08 11:37:07;;;;;;;15.40;3.25;;;;;;;;;;5048505;28;20061;-86
2023/10/08 11:39:45;;;;;;;16.25;3.38;;;;;;;;;;5048371;28;20044;-85
2023/10/08 11:44:55;;;;;;;15.85;3.83;;;;;;;;;;5048673;28;20040;-85
2023/10/08 11:47:21;;;;;;;12.48;3.60;;;;;;;;;;5048064;28;20045;-86
2023/10/08 11:49:50;;;;;;;16.08;3.80;;;;;;;;;;5048093;28;20042;-86
2023/10/08 11:52:16;;;;;;;13.00;3.30;;;;;;;;;;5040276;28;20045;-86
2023/10/08 11:54:42;;;;;;;15.35;3.33;;;;;;;;;;5047655;28;20041;-86
2023/10/08 11:57:09;;;;;;;17.92;3.50;;;;;;;;;;5048203;28;20400;-86
2023/10/08 11:59:39;;;;;;;17.38;3.05;;;;;;;;;;5047881;28;20106;-86
2023/10/08 12:02:06;;;;;;;15.68;3.15;;;;;;;;;;5060028;28;20037;-87
2023/10/08 12:04:31;;;;;;;17.40;3.60;;;;;;;;;;5047521;28;20111;-87
2023/10/08 12:07:01;;;;;;;16.23;4.10;;;;;;;;;;5063929;28;20038;-86
2023/10/08 12:09:27;;;;;;;16.20;3.45;;;;;;;;;;5043648;28;20069;-84
2023/10/08 12:11:53;;;;;;;16.27;3.10;;;;;;;;;;5044143;28;20048;-86
2023/10/08 12:14:19;;;;;;;18.08;3.13;;;;;;;;;;5040126;28;20124;-85
2023/10/08 12:16:45;;;;;;;14.50;3.15;;;;;;;;;;5034325;28;20091;-88
2023/10/08 12:19:16;;;;;;;15.10;3.28;;;;;;;;;;5025476;28;20037;-89
2023/10/08 12:21:47;;;;;;;21.80;3.38;;;;;;;;;;5032041;28;20018;-89
2023/10/08 12:24:13;;;;;;;21.40;3.75;;;;;;;;;;5018711;28;20121;-89
2023/10/08 12:26:45;;;;;;;17.90;3.42;;;;;;;;;;5032868;28;20124;-89
2023/10/08 12:29:14;;;;;;;18.77;3.90;;;;;;;;;;5031676;28;20064;-89
2023/10/08 12:31:40;;;;;;;17.70;3.65;;;;;;;;;;5031934;28;20487;-89
2023/10/08 12:34:06;;;;;;;15.25;3.17;;;;;;;;;;5022894;28;20049;-89
2023/10/08 12:36:32;;;;;;;15.23;3.60;;;;;;;;;;5033128;28;20030;-88
2023/10/08 12:38:58;;;;;;;15.55;3.63;;;;;;;;;;5034255;28;20053;-89
2023/10/08 12:41:27;;;;;;;21.10;3.80;;;;;;;;;;5024519;28;20042;-89
2023/10/08 12:43:53;;;;;;;15.57;3.35;;;;;;;;;;5032855;28;20029;-90
2023/10/08 12:46:23;;;;;;;22.85;3.70;;;;;;;;;;5031235;28;20030;-89
2023/10/08 12:48:54;;;;;;;16.77;3.55;;;;;;;;;;5033267;28;20116;-89
2023/10/08 12:51:24;;;;;;;19.15;3.28;;;;;;;;;;5032353;28;20514;-89
2023/10/08 12:53:55;;;;;;;17.70;3.05;;;;;;;;;;5030779;28;20045;-89
2023/10/08 12:56:31;;;;;;;18.40;3.08;;;;;;;;;;5032872;28;20533;-89
2023/10/08 12:58:57;;;;;;;16.83;2.92;;;;;;;;;;5031171;28;20037;-89
2023/10/08 13:01:23;;;;;;;14.68;3.10;;;;;;;;;;5027126;28;20037;-83
2023/10/08 13:03:48;;;;;;;17.88;4.28;;;;;;;;;;5035608;28;20109;-84
2023/10/08 13:06:22;;;;;;;18.63;4.10;;;;;;;;;;5049134;28;20043;-84
2023/10/08 13:08:52;;;;;;;19.35;4.05;;;;;;;;;;5033311;28;20037;-83
2023/10/08 13:11:22;;;;;;;12.07;2.85;;;;;;;;;;5033295;28;20116;-87
2023/10/08 13:13:49;;;;;;;16.17;3.17;;;;;;;;;;5033241;28;20037;-88
2023/10/08 13:16:15;;;;;;;18.35;2.90;;;;;;;;;;5026460;28;20060;-88
2023/10/08 13:18:43;;;;;;;17.27;3.67;;;;;;;;;;5033366;28;20029;-88
2023/10/08 13:21:12;;;;;;;18.60;3.20;;;;;;;;;;5032325;28;20578;-87
2023/10/08 13:23:37;;;;;;;15.98;3.83;;;;;;;;;;5045996;28;20048;-88
2023/10/08 13:26:04;;;;;;;20.27;3.38;;;;;;;;;;5032549;28;20033;-88
2023/10/08 13:28:33;;;;;;;15.43;3.30;;;;;;;;;;5030178;28;20091;-88
2023/10/08 13:31:09;;;;;;;16.88;3.25;;;;;;;;;;5035923;28;20064;-89
2023/10/08 13:33:39;;;;;;;11.95;3.08;;;;;;;;;;5037808;28;20033;-88
2023/10/08 13:36:09;;;;;;;19.88;3.50;;;;;;;;;;5039225;28;20040;-87
2023/10/08 13:38:36;;;;;;;20.95;3.45;;;;;;;;;;5035880;28;20025;-88
2023/10/08 13:41:18;;;;;;;11.93;3.65;;;;;;;;;;5041923;28;20540;-87
2023/10/08 13:43:53;;;;;;;21.17;3.35;;;;;;;;;;5038967;28;20059;-88
2023/10/08 13:46:22;;;;;;;14.77;2.83;;;;;;;;;;5028528;28;20033;-87
2023/10/08 13:48:51;;;;;;;15.25;2.92;;;;;;;;;;5025666;28;20037;-88
2023/10/08 13:51:25;;;;;;;13.93;2.80;;;;;;;;;;5031682;28;20037;-89
2023/10/08 13:53:59;;;;;;;10.98;2.40;;;;;;;;;;5026406;28;20469;-87
2023/10/08 13:56:30;;;;;;;19.05;3.20;;;;;;;;;;5029870;28;20041;-88
2023/10/08 13:59:12;;;;;;;19.13;3.08;;;;;;;;;;5032427;28;20179;-87
2023/10/08 14:01:51;;;;;;;18.20;3.42;;;;;;;;;;5034120;28;20045;-88
2023/10/08 14:04:19;;;;;;;16.30;3.25;;;;;;;;;;5034002;28;20514;-88
2023/10/08 14:06:51;;;;;;;14.63;3.53;;;;;;;;;;5033964;28;20037;-87
2023/10/08 14:09:21;;;;;;;16.50;2.92;;;;;;;;;;5033870;28;20056;-87
2023/10/08 14:11:50;;;;;;;17.13;2.95;;;;;;;;;;5032891;28;20025;-88
2023/10/08 14:14:17;;;;;;;20.77;4.18;;;;;;;;;;5037124;28;20091;-88
2023/10/08 14:16:43;;;;;;;16.38;3.63;;;;;;;;;;5035334;28;20037;-87
2023/10/08 14:19:12;;;;;;;19.88;3.90;;;;;;;;;;5035897;28;20044;-87
2023/10/08 14:21:49;;;;;;;19.02;5.03;;;;;;;;;;5032870;28;20065;-87
2023/10/08 14:24:18;;;;;;;19.83;6.20;;;;;;;;;;5035729;28;20103;-86
2023/10/08 14:26:51;;;;;;;18.88;8.68;;;;;;;;;;5034554;28;20022;-88
2023/10/08 14:29:17;;;;;;;22.17;8.40;;;;;;;;;;5035354;28;20040;-88
2023/10/08 14:31:44;;;;;;;27.45;11.75;;;;;;;;;;5032629;28;20045;-88
2023/10/08 14:44:53;;;;;;;11.07;3.78;;;;;;;;;;5035555;28;19967;-87
2023/10/08 14:47:19;;;;;;;16.00;4.10;;;;;;;;;;5033361;28;20040;-89
2023/10/08 14:49:45;;;;;;;16.08;4.00;;;;;;;;;;5031719;28;20045;-88
2023/10/08 14:52:12;;;;;;;12.77;3.53;;;;;;;;;;5033270;28;20041;-89
2023/10/08 14:54:37;;;;;;;21.40;4.00;;;;;;;;;;5030841;28;20204;-88
2023/10/08 14:57:05;;;;;;;14.63;3.60;;;;;;;;;;5030938;28;20160;-89
2023/10/08 14:59:32;;;;;;;16.50;3.30;;;;;;;;;;5047367;28;20053;-89
2023/10/08 15:01:58;;;;;;;23.58;3.40;;;;;;;;;;5036831;28;20089;-88
2023/10/08 15:04:26;;;;;;;21.67;3.30;;;;;;;;;;5036129;28;20069;-89
2023/10/08 15:06:52;;;;;;;13.20;3.40;;;;;;;;;;5037408;28;20061;-87
2023/10/08 15:09:26;;;;;;;39.30;21.90;;;;;;;;;;5041126;28;20061;-87
2023/10/08 15:11:52;;;;;;;41.90;22.80;;;;;;;;;;5041890;28;20037;-88
2023/10/08 15:14:23;;;;;;;21.92;9.15;;;;;;;;;;5037577;28;20049;-88
2023/10/08 15:16:52;;;;;;;19.45;7.18;;;;;;;;;;5034683;28;20084;-89
2023/10/08 15:19:22;;;;;;;18.35;6.10;;;;;;;;;;5034450;28;20041;-89
2023/10/08 15:21:51;;;;;;;18.77;6.07;;;;;;;;;;5032586;28;20041;-88
2023/10/08 15:24:18;;;;;;;19.67;4.53;;;;;;;;;;5035082;28;20038;-89
2023/10/08 15:26:44;;;;;;;57.83;18.75;;;;;;;;;;5034810;28;20033;-89
2023/10/08 15:29:10;;;;;;;91.28;25.55;;;;;;;;;;5035487;28;20033;-88
2023/10/08 15:31:36;;;;;;;74.53;24.70;;;;;;;;;;5035086;28;20090;-88
2023/10/08 15:34:04;;;;;;;202.38;51.75;;;;;;;;;;5034949;28;20061;-87
2023/10/08 15:36:30;;;;;;;232.63;62.70;;;;;;;;;;5035435;28;20051;-88
2023/10/08 15:38:56;;;;;;;194.93;50.40;;;;;;;;;;5037444;28;20454;-87
2023/10/08 15:41:21;;;;;;;152.95;40.58;;;;;;;;;;5051750;28;20072;-83
2023/10/08 15:43:51;;;;;;;146.80;37.90;;;;;;;;;;5041082;28;20061;-84
2023/10/08 15:46:18;;;;;;;97.28;27.95;;;;;;;;;;5037184;28;20033;-85
2023/10/08 15:48:43;;;;;;;91.55;26.45;;;;;;;;;;5040431;28;20065;-85
2023/10/08 15:51:09;;;;;;;63.80;19.50;;;;;;;;;;5038499;28;20526;-83
2023/10/08 15:53:35;;;;;;;30.83;9.93;;;;;;;;;;5038597;28;20047;-84
2023/10/08 15:56:01;;;;;;;26.13;8.35;;;;;;;;;;5038758;28;20033;-84
2023/10/08 15:58:26;;;;;;;32.13;9.68;;;;;;;;;;5040281;28;20038;-82
2023/10/08 16:00:53;;;;;;;24.60;9.00;;;;;;;;;;5039358;28;20068;-85
2023/10/08 16:03:19;;;;;;;26.08;6.22;;;;;;;;;;5041599;28;20049;-83
2023/10/08 16:05:48;;;;;;;16.02;5.65;;;;;;;;;;5038872;28;20495;-85